createdAt,value
2023-03-18T00:08:24.600Z,8.29
2023-03-18T00:13:56.667Z,8.18
2023-03-18T00:19:28.608Z,8.14
2023-03-18T00:25:00.642Z,8.08
2023-03-18T00:30:32.497Z,8.01
2023-03-18T00:36:04.244Z,7.98
2023-03-18T00:41:36.614Z,7.96
2023-03-18T00:47:08.752Z,7.88
2023-03-18T00:52:40.806Z,7.87
2023-03-18T00:58:12.983Z,7.86
2023-03-18T01:03:45.078Z,7.81
2023-03-18T01:09:18.230Z,7.77
2023-03-18T01:14:50.086Z,7.71
2023-03-18T01:20:22.307Z,7.61
2023-03-18T01:25:54.915Z,7.63
2023-03-18T01:31:26.973Z,7.56
2023-03-18T01:36:59.119Z,7.52
2023-03-18T01:42:31.498Z,7.41
2023-03-18T01:48:03.411Z,7.41
2023-03-18T01:53:35.241Z,7.33
2023-03-18T01:59:07.010Z,7.28
2023-03-18T02:04:39.023Z,7.28
2023-03-18T02:10:11.039Z,7.26
2023-03-18T02:15:42.760Z,7.26
2023-03-18T02:21:14.636Z,7.24
2023-03-18T02:26:46.951Z,7.24
2023-03-18T02:32:18.818Z,7.25
2023-03-18T02:37:50.797Z,7.26
2023-03-18T02:43:23.181Z,7.25
2023-03-18T02:48:55.346Z,7.24
2023-03-18T02:54:27.305Z,7.22
2023-03-18T02:59:59.364Z,7.24
2023-03-18T03:05:31.110Z,7.25
2023-03-18T03:11:03.185Z,7.29
2023-03-18T03:16:35.050Z,7.33
2023-03-18T03:22:06.921Z,7.39
2023-03-18T03:27:38.424Z,7.53
2023-03-18T03:33:10.466Z,7.53
2023-03-18T03:38:42.800Z,7.67
2023-03-18T03:44:14.999Z,7.73
2023-03-18T03:49:47.630Z,7.83
2023-03-18T03:55:19.951Z,7.88
2023-03-18T04:00:52.000Z,8.00
2023-03-18T04:06:23.941Z,8.01
2023-03-18T04:11:56.020Z,8.12
2023-03-18T04:17:28.134Z,8.14
2023-03-18T04:23:00.412Z,8.19
2023-03-18T04:28:32.661Z,8.18
2023-03-18T04:34:04.744Z,8.24
2023-03-18T04:39:36.814Z,8.21
2023-03-18T04:45:08.723Z,8.22
2023-03-18T04:50:41.915Z,8.21
2023-03-18T04:56:14.512Z,8.18
2023-03-18T05:01:46.939Z,8.19
2023-03-18T05:07:19.048Z,8.18
2023-03-18T05:12:51.318Z,8.18
2023-03-18T05:18:23.518Z,8.16
2023-03-18T05:23:55.898Z,8.16
2023-03-18T05:29:28.415Z,8.16
2023-03-18T05:35:00.870Z,8.16
2023-03-18T05:40:33.475Z,8.16
2023-03-18T05:46:05.567Z,8.26
2023-03-18T05:51:39.674Z,8.32
2023-03-18T05:57:11.927Z,8.39
2023-03-18T06:02:44.002Z,8.44
2023-03-18T06:08:16.043Z,8.50
2023-03-18T06:13:48.047Z,8.59
2023-03-18T06:19:20.272Z,8.77
2023-03-18T06:24:52.145Z,8.90
2023-03-18T06:30:24.681Z,9.22
2023-03-18T06:35:56.824Z,9.39
2023-03-18T06:38:08.940Z,9.55
2023-03-18T06:49:13.418Z,10.20
2023-03-18T06:54:46.101Z,10.46
2023-03-18T07:02:39.803Z,0.00
2023-03-18T07:08:11.528Z,11.71
2023-03-18T07:13:43.484Z,12.03
2023-03-18T07:19:15.244Z,12.67
2023-03-18T07:24:46.803Z,12.95
2023-03-18T07:32:40.560Z,13.93
2023-03-18T07:38:12.401Z,14.20
2023-03-18T07:43:44.301Z,14.58
2023-03-18T07:49:16.117Z,14.75
2023-03-18T07:54:48.037Z,15.07
2023-03-18T08:00:19.886Z,15.20
2023-03-18T08:05:52.421Z,15.31
2023-03-18T08:11:24.143Z,15.51
2023-03-18T08:22:25.688Z,16.02
2023-03-18T08:27:57.462Z,16.20
2023-03-18T08:33:29.382Z,16.75
2023-03-18T08:39:01.112Z,17.10
2023-03-18T08:44:32.674Z,17.79
2023-03-18T08:50:04.633Z,18.12
2023-03-18T08:55:36.521Z,18.85
2023-03-18T09:01:11.376Z,19.24
2023-03-18T09:06:40.165Z,19.85
2023-03-18T09:12:12.130Z,20.09
2023-03-18T09:17:56.355Z,20.44
2023-03-18T09:23:15.994Z,20.55
2023-03-18T09:28:48.010Z,20.72
2023-03-18T09:34:19.801Z,20.82
2023-03-18T09:39:51.452Z,20.89
2023-03-18T09:45:23.290Z,20.85
2023-03-18T09:50:55.413Z,20.85
2023-03-18T09:56:27.079Z,20.90
2023-03-18T10:01:59.328Z,21.13
2023-03-18T10:07:31.263Z,21.25
2023-03-18T10:13:03.176Z,21.48
2023-03-18T10:18:35.521Z,21.55
2023-03-18T10:24:07.419Z,21.72
2023-03-18T10:29:39.303Z,21.75
2023-03-18T10:35:11.142Z,21.65
2023-03-18T10:40:42.661Z,21.62
2023-03-18T10:46:14.455Z,21.57
2023-03-18T10:51:45.994Z,21.57
2023-03-18T10:57:17.554Z,21.42
2023-03-18T11:02:49.529Z,21.36
2023-03-18T11:08:21.165Z,20.99
2023-03-18T11:19:22.028Z,20.68
2023-03-18T11:24:53.814Z,20.58
2023-03-18T11:30:33.987Z,20.48
2023-03-18T11:35:57.458Z,20.35
2023-03-18T11:41:29.371Z,20.10
2023-03-18T11:47:01.327Z,20.10
2023-03-18T11:52:33.105Z,20.14
2023-03-18T11:58:05.150Z,20.09
2023-03-18T12:03:37.093Z,19.93
2023-03-18T12:09:09.278Z,19.87
2023-03-18T12:14:40.922Z,19.78
2023-03-18T12:20:13.098Z,19.78
2023-03-18T12:25:45.166Z,19.80
2023-03-18T12:31:16.820Z,19.83
2023-03-18T12:36:48.734Z,19.95
2023-03-18T12:42:20.760Z,19.95
2023-03-18T12:47:52.804Z,19.97
2023-03-18T12:53:24.596Z,19.99
2023-03-18T13:04:26.489Z,19.99
2023-03-18T13:09:59.652Z,19.93
2023-03-18T13:15:31.845Z,19.95
2023-03-18T13:21:03.679Z,19.90
2023-03-18T13:26:35.470Z,19.95
2023-03-18T13:32:07.766Z,20.00
2023-03-18T13:37:39.876Z,19.95
2023-03-18T13:43:11.426Z,19.87
2023-03-18T13:48:43.352Z,19.89
2023-03-18T13:54:15.039Z,19.93
2023-03-18T13:59:46.535Z,19.97
2023-03-18T14:05:18.610Z,19.99
2023-03-18T14:10:50.445Z,19.99
2023-03-18T14:16:22.727Z,19.93
2023-03-18T14:21:54.451Z,19.85
2023-03-18T14:27:26.371Z,19.82
2023-03-18T14:32:58.066Z,19.83
2023-03-18T14:38:30.047Z,19.87
2023-03-18T14:44:02.173Z,19.92
2023-03-18T14:49:34.703Z,19.90
2023-03-18T14:55:06.640Z,19.92
2023-03-18T15:00:39.023Z,19.92
2023-03-18T15:06:11.489Z,19.92
2023-03-18T15:11:43.921Z,19.95
2023-03-18T15:17:16.760Z,19.97
2023-03-18T15:22:48.775Z,19.93
2023-03-18T15:28:20.338Z,20.02
2023-03-18T15:33:52.539Z,20.07
2023-03-18T15:39:25.474Z,20.16
2023-03-18T15:44:57.470Z,20.14
2023-03-18T15:50:29.246Z,20.14
2023-03-18T15:56:01.269Z,20.13
2023-03-18T16:01:33.437Z,20.13
2023-03-18T16:07:05.137Z,20.00
2023-03-18T16:12:37.133Z,19.82
2023-03-18T16:18:09.291Z,19.69
2023-03-18T16:23:41.050Z,19.58
2023-03-18T16:29:12.720Z,19.55
2023-03-18T16:34:46.691Z,19.47
2023-03-18T16:40:16.384Z,19.37
2023-03-18T16:45:48.012Z,19.20
2023-03-18T16:51:20.088Z,19.07
2023-03-18T16:56:53.363Z,18.85
2023-03-18T17:02:25.863Z,18.75
2023-03-18T17:07:58.050Z,18.62
2023-03-18T17:13:29.971Z,18.57
2023-03-18T17:19:01.932Z,18.41
2023-03-18T17:24:33.885Z,18.27
2023-03-18T17:30:06.370Z,18.00
2023-03-18T17:35:38.307Z,17.85
2023-03-18T17:41:10.220Z,17.55
2023-03-18T17:46:42.355Z,17.38
2023-03-18T17:52:15.156Z,17.13
2023-03-18T17:57:47.490Z,16.99
2023-03-18T18:03:19.540Z,16.76
2023-03-18T18:08:51.773Z,16.67
2023-03-18T18:14:24.074Z,16.48
2023-03-18T18:19:56.585Z,16.39
2023-03-18T18:25:28.402Z,16.17
2023-03-18T18:42:00.379Z,15.75
2023-03-18T18:47:32.525Z,15.57
2023-03-18T18:53:04.179Z,15.50
2023-03-18T18:58:36.498Z,15.36
2023-03-18T19:04:09.165Z,15.29
2023-03-18T19:09:41.459Z,15.14
2023-03-18T19:15:15.467Z,15.07
2023-03-18T19:20:44.797Z,14.96
2023-03-18T19:26:16.947Z,14.88
2023-03-18T19:31:49.109Z,14.75
2023-03-18T19:37:21.131Z,14.67
2023-03-18T19:42:53.739Z,14.54
2023-03-18T19:48:25.855Z,14.47
2023-03-18T19:53:58.080Z,14.29
2023-03-18T19:59:38.275Z,14.21
2023-03-18T20:05:02.054Z,14.19
2023-03-18T20:10:34.737Z,14.05
2023-03-18T20:16:07.175Z,14.01
2023-03-18T20:21:39.861Z,13.91
2023-03-18T20:27:11.883Z,13.82
2023-03-18T20:32:44.263Z,13.68
2023-03-18T20:38:16.601Z,13.58
2023-03-18T20:43:48.546Z,13.41
2023-03-18T20:45:59.747Z,0.00
2023-03-18T20:51:31.797Z,13.20
2023-03-18T20:57:03.956Z,13.12
2023-03-18T21:02:35.938Z,12.96
2023-03-18T21:08:07.833Z,12.86
2023-03-18T21:13:39.581Z,12.70
2023-03-18T21:19:11.674Z,12.64
2023-03-18T21:24:43.736Z,12.51
2023-03-18T21:30:15.284Z,12.46
2023-03-18T21:35:47.519Z,12.37
2023-03-18T21:41:19.583Z,12.32
2023-03-18T21:46:51.515Z,12.26
2023-03-18T21:52:23.716Z,12.27
2023-03-18T21:57:55.819Z,12.15
2023-03-18T22:03:27.985Z,12.08
2023-03-18T22:09:00.381Z,11.98
2023-03-18T22:14:32.594Z,11.91
2023-03-18T22:20:05.137Z,11.78
2023-03-18T22:25:37.145Z,11.68
2023-03-18T22:31:09.284Z,11.55
2023-03-18T22:36:41.024Z,11.49
2023-03-18T22:42:12.870Z,11.46
2023-03-18T22:47:44.665Z,11.42
2023-03-18T22:53:16.993Z,11.36
2023-03-18T22:58:49.135Z,11.29
2023-03-18T23:04:21.161Z,11.25
2023-03-18T23:15:23.078Z,11.10
2023-03-18T23:20:55.413Z,11.09
2023-03-18T23:26:27.268Z,11.06
2023-03-18T23:31:59.404Z,11.03
2023-03-18T23:37:31.739Z,11.02
2023-03-18T23:43:03.833Z,10.99
2023-03-18T23:48:35.676Z,10.95
2023-03-18T23:54:08.787Z,10.91
2023-03-18T23:59:40.766Z,10.87
